createdAt,value
2023-03-06T00:04:08.535Z,7.72
2023-03-06T00:14:11.547Z,7.90
2023-03-06T00:24:15.959Z,7.75
2023-03-06T00:34:18.917Z,9.40
2023-03-06T00:44:23.984Z,9.65
2023-03-06T00:54:26.977Z,9.67
2023-03-06T01:04:31.471Z,10.38
2023-03-06T01:14:34.621Z,12.15
2023-03-06T01:24:39.593Z,13.38
2023-03-06T01:34:42.585Z,14.50
2023-03-06T01:45:01.297Z,13.07
2023-03-06T01:55:08.384Z,15.27
2023-03-06T02:05:12.902Z,16.23
2023-03-06T02:15:17.985Z,16.58
2023-03-06T02:25:34.666Z,16.63
2023-03-06T02:35:40.371Z,16.65
2023-03-06T02:45:50.071Z,15.30
2023-03-06T02:55:53.152Z,16.63
2023-03-06T03:05:58.468Z,16.27
2023-03-06T03:16:07.357Z,17.13
2023-03-06T03:26:14.103Z,17.92
2023-03-06T03:36:20.375Z,18.83
2023-03-06T03:46:26.601Z,19.17
2023-03-06T03:56:31.978Z,21.85
2023-03-06T04:06:41.576Z,23.88
2023-03-06T04:16:45.082Z,26.10
2023-03-06T04:26:50.213Z,29.03
2023-03-06T04:36:53.599Z,28.77
2023-03-06T04:46:58.166Z,30.40
2023-03-06T04:57:01.178Z,33.53
2023-03-06T05:07:05.538Z,30.33
2023-03-06T05:17:08.736Z,31.42
2023-03-06T05:27:15.203Z,31.80
2023-03-06T05:37:19.816Z,30.77
2023-03-06T05:47:24.285Z,30.33
2023-03-06T05:57:27.480Z,30.77
2023-03-06T06:07:32.456Z,31.98
2023-03-06T06:17:35.498Z,33.78
2023-03-06T06:27:41.212Z,32.50
2023-03-06T06:37:44.363Z,32.42
2023-03-06T06:47:51.300Z,29.17
2023-03-06T06:57:54.376Z,33.35
2023-03-06T07:07:58.772Z,33.28
2023-03-06T07:18:01.788Z,34.80
2023-03-06T07:28:06.429Z,35.90
2023-03-06T07:38:09.875Z,37.38
2023-03-06T07:48:14.822Z,36.35
2023-03-06T08:08:21.946Z,36.42
2023-03-06T08:18:24.892Z,32.93
2023-03-06T08:28:29.664Z,31.35
2023-03-06T08:38:32.796Z,30.80
2023-03-06T08:48:37.124Z,29.17
2023-03-06T08:58:40.324Z,27.87
2023-03-06T09:08:44.814Z,27.30
2023-03-06T09:18:50.357Z,24.43
2023-03-06T09:28:54.790Z,24.60
2023-03-06T09:38:57.948Z,24.93
2023-03-06T09:49:31.354Z,21.60
2023-03-06T09:59:34.811Z,22.30
2023-03-06T10:09:45.673Z,21.30
2023-03-06T10:19:49.512Z,20.90
2023-03-06T10:30:03.980Z,19.25
2023-03-06T10:40:16.958Z,19.08
2023-03-06T10:50:26.003Z,20.02
2023-03-06T11:00:36.002Z,15.32
2023-03-06T11:10:40.412Z,16.25
2023-03-06T11:20:52.090Z,16.07
2023-03-06T11:31:03.185Z,13.82
2023-03-06T11:41:15.005Z,14.98
2023-03-06T11:51:23.596Z,12.90
2023-03-06T12:01:33.853Z,9.75
2023-03-06T12:11:47.151Z,8.63
2023-03-06T12:22:03.496Z,11.60
2023-03-06T12:32:30.453Z,13.07
2023-03-06T12:43:00.326Z,13.55
2023-03-06T12:53:07.603Z,15.90
2023-03-06T13:03:18.891Z,6.63
2023-03-06T13:13:35.370Z,6.72
2023-03-06T13:23:53.001Z,6.85
2023-03-06T13:34:03.054Z,11.32
2023-03-06T13:44:43.079Z,12.10
2023-03-06T13:54:59.078Z,10.45
2023-03-06T14:05:03.977Z,10.77
2023-03-06T14:15:18.846Z,14.00
2023-03-06T14:25:29.760Z,14.63
2023-03-06T14:35:34.486Z,15.15
2023-03-06T14:45:38.783Z,17.45
2023-03-06T14:55:51.256Z,19.77
2023-03-06T15:05:55.695Z,21.13
2023-03-06T15:16:04.478Z,21.80
2023-03-06T15:26:29.373Z,23.52
2023-03-06T15:36:35.440Z,23.67
2023-03-06T15:46:38.527Z,21.83
2023-03-06T15:56:45.556Z,22.83
2023-03-06T16:06:48.839Z,22.35
2023-03-06T16:16:55.139Z,21.83
2023-03-06T16:27:01.604Z,21.95
2023-03-06T16:37:07.624Z,20.25
2023-03-06T16:47:12.266Z,20.85
2023-03-06T16:57:16.736Z,23.23
2023-03-06T17:07:19.686Z,20.17
2023-03-06T17:17:24.185Z,26.00
2023-03-06T17:27:27.241Z,25.97
2023-03-06T17:37:33.006Z,25.50
2023-03-06T17:47:36.401Z,25.52
2023-03-06T17:57:40.729Z,23.85
2023-03-06T18:07:43.955Z,17.57
2023-03-06T18:17:48.420Z,18.48
2023-03-06T18:27:51.414Z,18.93
2023-03-06T18:37:55.834Z,18.80
2023-03-06T18:47:58.890Z,20.10
2023-03-06T18:58:03.360Z,19.67
2023-03-06T19:08:06.701Z,20.23
2023-03-06T19:18:12.153Z,21.30
2023-03-06T19:28:15.176Z,21.20
2023-03-06T19:38:19.563Z,21.25
2023-03-06T19:48:22.888Z,23.60
2023-03-06T19:58:27.727Z,24.80
2023-03-06T20:08:30.777Z,25.02
2023-03-06T20:18:35.220Z,25.98
2023-03-06T20:28:39.372Z,27.57
2023-03-06T20:38:44.468Z,25.30
2023-03-06T20:58:53.343Z,28.35
2023-03-06T21:08:56.806Z,27.25
2023-03-06T21:19:01.737Z,27.98
2023-03-06T21:39:09.476Z,29.10
2023-03-06T21:49:12.471Z,26.13
2023-03-06T21:59:16.831Z,25.33
2023-03-06T22:09:20.040Z,13.20
2023-03-06T22:19:24.455Z,18.42
2023-03-06T22:29:27.830Z,11.43
2023-03-06T22:39:32.173Z,18.67
2023-03-06T22:49:35.167Z,16.30
2023-03-06T22:59:39.524Z,20.55
2023-03-06T23:09:42.556Z,15.37
2023-03-06T23:20:09.994Z,17.23
2023-03-06T23:30:31.690Z,12.80
2023-03-06T23:40:36.045Z,8.95
2023-03-06T23:50:41.166Z,7.23
